Time;durP1;ratioP1;P1;durP2;ratioP2;P2;SDS_P1;SDS_P2;PMS_P1;PMS_P2;Temp;Humidity;BMP_temperature;BMP_pressure;BME280_temperature;BME280_humidity;BME280_pressure;Samples;Min_cycle;Max_cycle;Signal;HPM_P1;HPM_P2
2022/04/21 00:02:13;;;;;;;13.63;10.18;;;8.80;99.90;;;;;;5088553;28;20063;-65
2022/04/21 00:04:41;;;;;;;11.65;9.07;;;8.70;99.90;;;;;;5099407;28;20037;-66
2022/04/21 00:07:08;;;;;;;13.25;8.85;;;8.80;99.90;;;;;;5098051;28;20057;-65
2022/04/21 00:09:35;;;;;;;14.13;9.98;;;8.80;99.90;;;;;;5098874;28;20097;-66
2022/04/21 00:12:03;;;;;;;12.32;8.65;;;8.70;99.90;;;;;;5105455;28;20063;-65
2022/04/21 00:14:31;;;;;;;11.63;8.63;;;8.80;99.90;;;;;;5113456;28;20036;-66
2022/04/21 00:16:58;;;;;;;13.63;9.75;;;8.80;99.90;;;;;;5113975;28;20408;-66
2022/04/21 00:19:25;;;;;;;12.27;9.20;;;8.80;99.90;;;;;;5114370;28;20557;-65
2022/04/21 00:24:39;;;;;;;12.95;8.77;;;8.80;99.90;;;;;;5102402;28;20048;-67
2022/04/21 00:27:06;;;;;;;12.13;7.90;;;8.80;99.90;;;;;;5112539;28;20047;-66
2022/04/21 00:29:35;;;;;;;10.43;8.00;;;8.80;99.90;;;;;;5102994;28;20040;-65
2022/04/21 00:32:02;;;;;;;9.73;7.55;;;8.70;99.90;;;;;;5080054;28;20047;-66
2022/04/21 00:34:32;;;;;;;11.98;9.02;;;8.80;99.90;;;;;;5103488;28;20398;-66
2022/04/21 00:37:00;;;;;;;15.63;10.02;;;8.70;99.90;;;;;;5111894;28;20132;-66
2022/04/21 00:39:27;;;;;;;15.30;9.35;;;8.70;99.90;;;;;;5112362;28;20050;-67
2022/04/21 00:41:56;;;;;;;10.80;8.13;;;8.70;99.90;;;;;;5109722;28;20081;-66
2022/04/21 00:44:24;;;;;;;11.40;8.75;;;8.70;99.90;;;;;;5112211;28;20530;-65
2022/04/21 00:46:52;;;;;;;11.23;8.07;;;8.70;99.90;;;;;;5110788;28;20052;-66
2022/04/21 00:49:21;;;;;;;13.00;8.70;;;8.70;99.90;;;;;;5098812;28;20127;-66
2022/04/21 00:51:52;;;;;;;13.13;8.75;;;8.70;99.90;;;;;;5111586;28;20065;-67
2022/04/21 00:54:20;;;;;;;17.50;9.47;;;8.70;99.90;;;;;;5110707;28;20065;-67
2022/04/21 00:56:49;;;;;;;13.18;7.88;;;8.70;99.90;;;;;;5101123;28;20303;-66
2022/04/21 00:59:17;;;;;;;9.30;7.05;;;8.70;99.90;;;;;;5097979;28;20439;-66
2022/04/21 01:04:32;;;;;;;9.45;7.60;;;8.70;99.90;;;;;;5104892;28;20052;-66
2022/04/21 01:07:00;;;;;;;11.63;7.55;;;8.80;99.90;;;;;;5095499;28;20050;-67
2022/04/21 01:09:28;;;;;;;9.60;6.53;;;8.70;99.90;;;;;;5098073;28;20051;-66
2022/04/21 01:11:56;;;;;;;9.18;7.00;;;8.70;99.90;;;;;;5111174;28;20058;-67
2022/04/21 01:14:24;;;;;;;12.70;7.38;;;8.80;99.90;;;;;;5100556;28;20396;-67
2022/04/21 01:16:52;;;;;;;10.15;7.30;;;8.80;99.90;;;;;;5105437;28;20063;-66
2022/04/21 01:19:20;;;;;;;8.60;6.82;;;8.80;99.90;;;;;;5088588;28;20036;-65
2022/04/21 01:21:49;;;;;;;10.15;7.45;;;8.80;99.90;;;;;;5092655;28;20055;-65
2022/04/21 01:24:17;;;;;;;10.27;8.32;;;8.80;99.90;;;;;;5092144;28;20499;-67
2022/04/21 01:26:46;;;;;;;10.25;7.38;;;8.80;99.90;;;;;;5092882;28;20131;-64
2022/04/21 01:29:13;;;;;;;11.65;7.63;;;8.80;99.90;;;;;;5090873;28;20050;-66
2022/04/21 01:31:41;;;;;;;11.40;7.85;;;8.80;99.90;;;;;;5087188;28;20127;-67
2022/04/21 01:34:09;;;;;;;8.82;6.97;;;8.80;99.90;;;;;;5093500;28;20502;-67
2022/04/21 01:41:08;;;;;;;10.35;7.75;;;8.90;99.90;;;;;;5091193;28;20044;-66
2022/04/21 01:42:14;;;;;;;10.25;7.68;;;8.90;99.90;;;;;;5127648;27;20047;-66
2022/04/21 01:44:42;;;;;;;11.57;7.65;;;8.90;99.90;;;;;;5128073;27;20043;-65
2022/04/21 01:47:11;;;;;;;9.52;6.95;;;8.90;99.90;;;;;;5126897;27;20421;-66
2022/04/21 01:49:39;;;;;;;10.00;7.70;;;8.90;99.90;;;;;;5126828;27;20108;-66
2022/04/21 01:52:06;;;;;;;9.75;6.97;;;8.80;99.90;;;;;;5114886;28;20158;-67
2022/04/21 01:54:33;;;;;;;10.77;7.53;;;8.90;99.90;;;;;;5127825;27;20115;-67
2022/04/21 01:57:01;;;;;;;11.20;8.23;;;8.90;99.90;;;;;;5127593;28;20153;-65
2022/04/21 01:59:28;;;;;;;9.38;7.28;;;8.80;99.90;;;;;;5127618;28;20040;-65
2022/04/21 02:01:56;;;;;;;9.25;7.40;;;8.80;99.90;;;;;;5106907;28;20044;-66
2022/04/21 02:04:23;;;;;;;12.52;8.43;;;8.80;99.90;;;;;;5107647;28;20044;-65
2022/04/21 02:06:50;;;;;;;9.88;7.40;;;8.70;99.90;;;;;;5107180;28;20048;-66
2022/04/21 02:09:18;;;;;;;11.32;8.32;;;8.70;99.90;;;;;;5106538;28;20078;-64
2022/04/21 02:11:45;;;;;;;10.15;8.05;;;8.60;99.90;;;;;;5107576;28;20123;-66
2022/04/21 02:14:13;;;;;;;12.68;8.32;;;8.60;99.90;;;;;;5109229;28;20032;-66
2022/04/21 02:16:40;;;;;;;11.15;8.18;;;8.50;99.90;;;;;;5120822;28;20040;-66
2022/04/21 02:19:07;;;;;;;11.38;7.95;;;8.50;99.90;;;;;;5105874;28;20050;-66
2022/04/21 02:21:35;;;;;;;10.70;8.43;;;8.50;99.90;;;;;;5115826;28;20454;-66
2022/04/21 02:24:03;;;;;;;10.75;8.02;;;8.50;99.90;;;;;;5113311;28;20055;-66
2022/04/21 02:26:30;;;;;;;10.73;7.80;;;8.50;99.90;;;;;;5113673;28;20044;-66
2022/04/21 02:28:57;;;;;;;11.18;7.93;;;8.50;99.90;;;;;;5108382;28;20143;-66
2022/04/21 02:31:24;;;;;;;11.10;7.20;;;8.50;99.90;;;;;;5118007;28;20511;-66
2022/04/21 02:33:52;;;;;;;9.68;7.38;;;8.50;99.90;;;;;;5112055;28;20126;-66
2022/04/21 02:36:19;;;;;;;11.52;8.68;;;8.50;99.90;;;;;;5121417;28;20126;-66
2022/04/21 02:38:46;;;;;;;17.38;8.45;;;8.50;99.90;;;;;;5108918;28;20123;-66
2022/04/21 02:41:15;;;;;;;10.63;7.03;;;8.60;99.90;;;;;;5125086;28;20035;-66
2022/04/21 02:43:42;;;;;;;10.25;7.47;;;8.50;99.90;;;;;;5119008;27;20150;-66
2022/04/21 02:46:10;;;;;;;9.32;7.85;;;8.60;99.90;;;;;;5121254;27;20180;-66
2022/04/21 02:48:37;;;;;;;11.82;8.35;;;8.60;99.90;;;;;;5118606;28;20047;-66
2022/04/21 02:51:04;;;;;;;11.63;8.02;;;8.60;99.90;;;;;;5105934;28;20095;-66
2022/04/21 02:59:03;;;;;;;11.90;8.27;;;8.60;99.90;;;;;;5113959;27;20074;-65
2022/04/21 03:01:31;;;;;;;12.35;8.48;;;8.50;99.90;;;;;;5105389;28;20042;-65
2022/04/21 03:03:59;;;;;;;10.48;8.43;;;8.50;99.90;;;;;;5102860;28;20043;-66
2022/04/21 03:06:26;;;;;;;10.93;8.43;;;8.40;99.90;;;;;;5096661;28;20130;-65
2022/04/21 03:08:53;;;;;;;11.30;7.72;;;8.40;99.90;;;;;;5098313;28;20039;-65
2022/04/21 03:11:21;;;;;;;11.20;8.45;;;8.40;99.90;;;;;;5110711;28;20051;-65
2022/04/21 03:13:48;;;;;;;14.25;9.63;;;8.30;99.90;;;;;;5106585;28;20509;-66
2022/04/21 03:16:15;;;;;;;10.60;8.10;;;8.30;99.90;;;;;;5099001;28;20044;-66
2022/04/21 03:18:42;;;;;;;10.18;7.70;;;8.30;99.90;;;;;;5106488;28;20088;-66
2022/04/21 03:26:41;;;;;;;11.65;9.10;;;8.40;99.90;;;;;;5111851;28;20061;-67
2022/04/21 03:29:09;;;;;;;14.30;9.65;;;8.40;99.90;;;;;;5105169;28;20058;-65
2022/04/21 03:31:37;;;;;;;12.70;8.70;;;8.50;99.90;;;;;;5107673;28;20104;-66
2022/04/21 03:34:05;;;;;;;12.57;9.02;;;8.50;99.90;;;;;;5106644;28;20036;-65
2022/04/21 03:36:33;;;;;;;12.25;9.10;;;8.50;99.90;;;;;;5106758;28;20502;-65
2022/04/21 03:39:00;;;;;;;14.15;9.70;;;8.60;99.90;;;;;;5110935;28;20044;-65
2022/04/21 03:41:28;;;;;;;12.27;8.30;;;8.60;99.90;;;;;;5111708;28;20043;-66
2022/04/21 03:43:55;;;;;;;12.70;8.35;;;8.60;99.90;;;;;;5109066;28;20050;-66
2022/04/21 03:46:23;;;;;;;13.80;9.45;;;8.60;99.90;;;;;;5112042;28;20067;-67
2022/04/21 03:48:50;;;;;;;10.30;8.18;;;8.60;99.90;;;;;;5110682;28;20193;-66
2022/04/21 03:51:18;;;;;;;12.65;8.20;;;8.60;99.90;;;;;;5102698;28;20048;-65
2022/04/21 03:53:45;;;;;;;11.60;8.15;;;8.60;99.90;;;;;;5106379;28;20062;-66
2022/04/21 03:56:12;;;;;;;11.20;8.38;;;8.60;99.90;;;;;;5108063;28;20063;-66
2022/04/21 03:58:39;;;;;;;14.73;8.43;;;8.60;99.90;;;;;;5112491;27;20073;-66
2022/04/21 04:01:06;;;;;;;10.07;8.30;;;8.60;99.90;;;;;;5094178;28;20052;-66
2022/04/21 04:03:34;;;;;;;10.70;8.25;;;8.50;99.90;;;;;;5092242;28;20415;-66
2022/04/21 04:06:01;;;;;;;13.52;8.98;;;8.50;99.90;;;;;;5089777;28;20092;-65
2022/04/21 04:11:14;;;;;;;15.18;8.65;;;8.50;99.90;;;;;;5102443;28;20139;-66
2022/04/21 04:13:42;;;;;;;11.02;8.25;;;8.50;99.90;;;;;;5104606;28;20333;-65
2022/04/21 04:16:09;;;;;;;14.45;9.40;;;8.40;99.90;;;;;;5096603;28;20828;-66
2022/04/21 04:18:36;;;;;;;13.05;9.15;;;8.50;99.90;;;;;;5110272;28;20047;-66
2022/04/21 04:21:04;;;;;;;12.75;8.73;;;8.50;99.90;;;;;;5105770;28;20393;-66
2022/04/21 04:23:32;;;;;;;14.43;9.23;;;8.40;99.90;;;;;;5111694;28;20123;-66
2022/04/21 04:25:59;;;;;;;11.50;8.55;;;8.50;99.90;;;;;;5109903;28;20063;-65
2022/04/21 04:28:26;;;;;;;16.27;9.48;;;8.50;99.90;;;;;;5106009;28;20530;-65
2022/04/21 04:30:54;;;;;;;11.10;8.85;;;8.50;99.90;;;;;;5111406;28;20588;-66
2022/04/21 04:33:22;;;;;;;12.40;9.10;;;8.60;99.90;;;;;;5108655;28;20123;-66
2022/04/21 04:35:49;;;;;;;12.13;8.73;;;8.60;99.90;;;;;;5092711;28;20414;-66
2022/04/21 04:38:16;;;;;;;12.88;8.65;;;8.60;99.90;;;;;;5108438;28;20487;-65
2022/04/21 04:40:44;;;;;;;12.55;8.90;;;8.70;99.90;;;;;;5106660;28;20046;-66
2022/04/21 04:43:12;;;;;;;12.82;9.02;;;8.60;99.90;;;;;;5100608;28;20139;-66
2022/04/21 04:48:25;;;;;;;11.52;8.68;;;8.70;99.90;;;;;;5108108;28;20119;-66
2022/04/21 04:50:52;;;;;;;10.27;7.72;;;8.70;99.90;;;;;;5109908;28;20043;-66
2022/04/21 04:53:19;;;;;;;12.00;9.07;;;8.70;99.90;;;;;;5110299;28;20043;-66
2022/04/21 04:55:46;;;;;;;13.85;8.27;;;8.80;99.90;;;;;;5110585;28;20122;-66
2022/04/21 04:58:14;;;;;;;13.02;8.63;;;8.80;99.90;;;;;;5103930;28;20512;-66
2022/04/21 05:00:42;;;;;;;12.18;9.05;;;8.80;99.90;;;;;;5089855;28;20368;-66
2022/04/21 05:03:09;;;;;;;11.07;7.93;;;8.90;99.90;;;;;;5094702;28;20130;-67
2022/04/21 05:05:36;;;;;;;14.80;9.00;;;8.90;99.90;;;;;;5088425;28;20036;-66
2022/04/21 05:08:06;;;;;;;11.65;8.52;;;9.00;99.90;;;;;;5093880;28;20086;-66
2022/04/21 05:10:33;;;;;;;10.85;8.07;;;9.00;99.90;;;;;;5094780;28;20104;-67
2022/04/21 05:13:01;;;;;;;11.90;8.60;;;9.10;99.90;;;;;;5095742;28;20555;-66
2022/04/21 05:15:28;;;;;;;14.60;9.50;;;9.10;99.90;;;;;;5092869;28;20547;-66
2022/04/21 05:17:56;;;;;;;15.23;10.40;;;9.10;99.90;;;;;;5097015;28;20042;-66
2022/04/21 05:20:26;;;;;;;12.52;8.90;;;9.10;99.90;;;;;;5108447;28;20448;-67
2022/04/21 05:23:04;;;;;;;14.18;9.65;;;9.20;99.90;;;;;;5106185;28;20081;-66
2022/04/21 05:25:36;;;;;;;11.02;8.35;;;9.30;99.90;;;;;;5105263;28;20048;-66
2022/04/21 05:28:05;;;;;;;12.35;9.13;;;9.30;99.90;;;;;;5089903;28;20063;-67
2022/04/21 05:33:23;;;;;;;14.30;8.75;;;9.40;99.90;;;;;;5090341;28;20040;-66
2022/04/21 05:35:50;;;;;;;11.00;8.50;;;9.50;99.90;;;;;;5096345;28;20410;-67
2022/04/21 05:38:20;;;;;;;10.52;7.68;;;9.50;99.90;;;;;;5105530;28;20162;-66
2022/04/21 05:40:48;;;;;;;13.60;9.45;;;9.60;99.90;;;;;;5103244;28;20131;-65
2022/04/21 05:43:20;;;;;;;14.15;9.77;;;9.60;99.90;;;;;;5108762;28;20062;-65
2022/04/21 05:45:48;;;;;;;13.80;8.95;;;9.60;99.90;;;;;;5106630;28;20564;-66
2022/04/21 05:48:16;;;;;;;14.00;8.15;;;9.80;99.90;;;;;;5099842;28;20502;-67
2022/04/21 05:50:45;;;;;;;10.98;7.88;;;10.00;99.90;;;;;;5103309;28;20035;-65
2022/04/21 05:53:20;;;;;;;12.57;8.50;;;10.10;99.90;;;;;;5093506;28;20056;-67
2022/04/21 05:55:47;;;;;;;11.45;8.23;;;10.30;99.90;;;;;;5099300;28;20048;-65
2022/04/21 05:58:15;;;;;;;10.68;7.82;;;10.40;99.90;;;;;;5094127;28;20036;-66
2022/04/21 06:00:42;;;;;;;14.30;8.85;;;10.50;99.90;;;;;;5092588;28;20044;-66
2022/04/21 06:03:11;;;;;;;14.13;8.90;;;10.50;99.90;;;;;;5097573;28;20565;-66
2022/04/21 06:05:39;;;;;;;13.95;9.25;;;10.60;99.90;;;;;;5105159;28;20043;-65
2022/04/21 06:08:07;;;;;;;14.20;8.93;;;10.70;99.90;;;;;;5094283;28;20048;-66
2022/04/21 06:10:35;;;;;;;10.65;8.13;;;10.70;99.90;;;;;;5103536;28;20135;-65
2022/04/21 06:13:03;;;;;;;13.93;9.65;;;10.80;99.90;;;;;;5108768;28;20051;-65
2022/04/21 06:15:31;;;;;;;12.60;8.73;;;10.80;99.90;;;;;;5096905;28;20044;-65
2022/04/21 06:17:59;;;;;;;11.98;7.82;;;10.80;99.90;;;;;;5102856;28;20051;-65
2022/04/21 06:20:27;;;;;;;11.35;8.52;;;10.90;99.90;;;;;;5104428;28;20036;-65
2022/04/21 06:22:55;;;;;;;12.23;7.38;;;10.80;99.90;;;;;;5100514;28;20586;-66
2022/04/21 06:25:22;;;;;;;12.57;7.85;;;10.90;99.90;;;;;;5109050;28;20046;-66
2022/04/21 06:27:51;;;;;;;12.05;7.95;;;11.10;99.90;;;;;;5106482;28;20044;-65
2022/04/21 06:30:19;;;;;;;14.32;9.00;;;11.10;99.90;;;;;;5108865;28;20131;-65
2022/04/21 06:32:47;;;;;;;12.40;8.35;;;11.00;99.90;;;;;;5105783;28;20039;-65
2022/04/21 06:35:14;;;;;;;11.50;8.10;;;11.20;99.90;;;;;;5102525;28;20050;-66
2022/04/21 06:37:42;;;;;;;11.70;7.68;;;11.20;99.90;;;;;;5107777;28;20557;-66
2022/04/21 06:40:09;;;;;;;11.68;8.85;;;11.40;99.90;;;;;;5109285;28;20066;-66
2022/04/21 06:42:38;;;;;;;12.35;8.77;;;11.50;99.90;;;;;;5097949;28;20103;-66
2022/04/21 06:48:04;;;;;;;12.65;7.90;;;11.60;99.90;;;;;;5097512;28;20036;-66
2022/04/21 06:50:37;;;;;;;11.95;8.05;;;11.70;99.90;;;;;;5107700;28;20051;-65
2022/04/21 06:53:06;;;;;;;15.65;8.43;;;11.70;99.90;;;;;;5111746;28;20559;-66
2022/04/21 06:55:34;;;;;;;12.40;7.85;;;11.90;99.90;;;;;;5107749;28;20499;-66
2022/04/21 06:58:02;;;;;;;14.27;7.25;;;12.10;99.90;;;;;;5110969;27;20144;-66
2022/04/21 07:00:29;;;;;;;10.48;7.72;;;12.30;99.90;;;;;;5100344;28;20484;-65
2022/04/21 07:02:58;;;;;;;12.50;7.40;;;12.50;99.90;;;;;;5095691;28;20398;-66
2022/04/21 07:05:26;;;;;;;15.23;8.05;;;12.60;99.90;;;;;;5099573;28;20031;-66
2022/04/21 07:07:55;;;;;;;11.90;7.90;;;12.60;99.90;;;;;;5112860;28;20118;-66
2022/04/21 07:10:22;;;;;;;10.82;7.20;;;12.80;99.90;;;;;;5096043;28;20047;-66
2022/04/21 07:12:50;;;;;;;11.27;7.70;;;13.00;99.90;;;;;;5111026;28;20489;-66
2022/04/21 07:15:18;;;;;;;11.82;7.63;;;13.00;99.90;;;;;;5110679;28;20510;-66
2022/04/21 07:17:45;;;;;;;11.25;7.50;;;13.00;99.90;;;;;;5112432;28;20494;-66
2022/04/21 07:20:13;;;;;;;10.27;6.95;;;13.00;99.90;;;;;;5112357;28;20039;-65
2022/04/21 07:22:40;;;;;;;11.23;7.63;;;13.10;99.90;;;;;;5109539;28;20454;-67
2022/04/21 07:25:09;;;;;;;14.90;8.63;;;13.30;99.90;;;;;;5105067;28;20068;-65
2022/04/21 07:27:37;;;;;;;10.98;7.70;;;13.40;99.90;;;;;;5110727;28;20043;-65
2022/04/21 07:30:06;;;;;;;13.05;8.00;;;13.40;99.90;;;;;;5112779;28;20073;-67
2022/04/21 07:32:34;;;;;;;11.02;7.75;;;13.50;99.90;;;;;;5110127;28;20155;-65
2022/04/21 07:35:02;;;;;;;10.82;6.80;;;13.50;99.90;;;;;;5105701;28;20558;-66
2022/04/21 07:37:30;;;;;;;11.35;8.07;;;13.70;99.90;;;;;;5099942;28;20077;-66
2022/04/21 07:39:57;;;;;;;13.07;7.93;;;13.80;99.90;;;;;;5096186;28;20173;-66
2022/04/21 07:42:25;;;;;;;14.63;8.05;;;13.70;99.90;;;;;;5096735;28;20434;-66
2022/04/21 07:44:53;;;;;;;13.07;8.25;;;13.90;99.90;;;;;;5099325;28;20437;-66
2022/04/21 07:47:21;;;;;;;11.73;7.50;;;14.00;99.90;;;;;;5099776;28;20114;-66
2022/04/21 07:49:48;;;;;;;15.07;8.82;;;14.00;99.90;;;;;;5110551;28;20508;-67
2022/04/21 07:55:18;;;;;;;9.70;7.20;;;13.90;99.90;;;;;;5093236;28;20046;-66
2022/04/21 07:57:47;;;;;;;14.93;7.72;;;14.20;99.90;;;;;;5110526;27;20494;-66
2022/04/21 08:00:17;;;;;;;11.05;7.20;;;14.20;99.90;;;;;;5102335;28;20378;-66
2022/04/21 08:02:46;;;;;;;10.88;7.43;;;14.50;99.90;;;;;;5090599;28;20095;-66
2022/04/21 08:05:16;;;;;;;10.73;6.68;;;14.40;99.90;;;;;;5105438;28;20482;-66
2022/04/21 08:07:46;;;;;;;10.07;7.13;;;14.60;99.90;;;;;;5102756;28;20067;-66
2022/04/21 08:10:19;;;;;;;11.43;6.78;;;14.70;99.90;;;;;;5102056;28;20128;-66
2022/04/21 08:12:49;;;;;;;10.52;7.10;;;14.80;99.90;;;;;;5106132;28;20147;-66
2022/04/21 08:15:28;;;;;;;10.52;6.70;;;14.70;99.90;;;;;;5105345;28;20051;-65
2022/04/21 08:17:57;;;;;;;10.57;6.88;;;14.80;99.90;;;;;;5105148;28;20143;-66
2022/04/21 08:20:26;;;;;;;10.07;6.35;;;14.80;99.90;;;;;;5109097;28;20478;-66
2022/04/21 08:22:54;;;;;;;10.73;6.13;;;14.90;99.90;;;;;;5097891;28;20044;-66
2022/04/21 08:34:20;;;;;;;9.40;6.30;;;15.20;99.90;;;;;;5109383;28;20054;-66
2022/04/21 08:36:53;;;;;;;9.50;6.25;;;15.40;99.90;;;;;;5110593;28;20464;-66
2022/04/21 08:39:21;;;;;;;8.25;5.80;;;15.30;99.90;;;;;;5110768;28;20043;-66
2022/04/21 08:41:53;;;;;;;9.57;5.88;;;15.10;99.90;;;;;;5110040;28;20035;-66
2022/04/21 08:44:21;;;;;;;7.78;5.50;;;15.30;99.90;;;;;;5098576;28;20137;-66
2022/04/21 08:46:49;;;;;;;9.88;6.30;;;15.40;99.90;;;;;;5097902;28;20044;-66
2022/04/21 08:49:21;;;;;;;7.80;5.40;;;15.30;99.90;;;;;;5109557;28;20104;-66
2022/04/21 08:51:49;;;;;;;8.68;6.22;;;15.30;99.90;;;;;;5109530;28;20051;-66
2022/04/21 08:54:17;;;;;;;11.18;6.75;;;15.20;99.90;;;;;;5106571;28;20062;-66
2022/04/21 08:56:44;;;;;;;14.80;6.60;;;15.40;99.90;;;;;;5111937;28;20044;-67
2022/04/21 08:59:11;;;;;;;8.93;5.93;;;15.40;99.90;;;;;;5108819;27;20052;-66
2022/04/21 09:01:39;;;;;;;8.55;5.50;;;15.40;99.90;;;;;;5091439;28;20506;-66
2022/04/21 09:04:06;;;;;;;7.65;5.30;;;15.40;99.90;;;;;;5090866;28;20051;-65
2022/04/21 09:06:38;;;;;;;7.85;4.85;;;15.80;99.90;;;;;;5089413;28;20048;-67
2022/04/21 09:09:14;;;;;;;7.32;5.25;;;16.20;99.90;;;;;;5091188;28;20043;-66
2022/04/21 09:11:43;;;;;;;7.00;4.95;;;16.20;99.90;;;;;;5090188;28;20039;-67
2022/04/21 09:14:17;;;;;;;9.10;5.07;;;16.20;99.90;;;;;;5094580;28;20036;-66
2022/04/21 09:16:45;;;;;;;7.30;5.30;;;16.20;99.90;;;;;;5098552;28;20100;-66
2022/04/21 09:19:16;;;;;;;9.77;5.30;;;16.30;99.90;;;;;;5093157;28;20403;-66
2022/04/21 09:21:43;;;;;;;9.07;4.80;;;16.30;99.90;;;;;;5105657;28;20059;-66
2022/04/21 09:24:24;;;;;;;7.28;4.75;;;16.60;99.90;;;;;;5102339;28;20039;-66
2022/04/21 09:26:53;;;;;;;7.72;5.05;;;16.90;99.90;;;;;;5109551;28;20455;-66
2022/04/21 09:29:30;;;;;;;8.10;4.80;;;17.00;99.90;;;;;;5100776;28;20101;-66
2022/04/21 09:31:59;;;;;;;7.80;4.63;;;17.20;99.90;;;;;;5105274;28;20047;-66
2022/04/21 09:34:35;;;;;;;5.80;4.15;;;17.10;99.90;;;;;;5105347;28;20397;-67
2022/04/21 09:37:07;;;;;;;6.82;4.35;;;17.30;99.90;;;;;;5095384;28;20040;-66
2022/04/21 09:39:48;;;;;;;9.90;5.20;;;17.70;99.90;;;;;;5109135;28;20116;-67
2022/04/21 09:42:26;;;;;;;6.82;4.78;;;17.70;99.90;;;;;;5108100;28;20146;-66
2022/04/21 09:47:56;;;;;;;12.90;4.63;;;17.70;99.90;;;;;;5108331;28;20062;-66
2022/04/21 09:50:25;;;;;;;7.70;4.65;;;17.90;99.90;;;;;;5109088;28;20052;-65
2022/04/21 09:52:54;;;;;;;11.55;5.97;;;18.20;99.90;;;;;;5097510;28;20036;-65
2022/04/21 09:55:31;;;;;;;5.43;4.32;;;18.20;99.90;;;;;;5104488;28;20410;-66
2022/04/21 09:58:06;;;;;;;7.03;4.57;;;18.70;99.90;;;;;;5109957;28;20046;-66
2022/04/21 10:00:35;;;;;;;7.05;4.70;;;18.50;99.90;;;;;;5101879;28;20052;-66
2022/04/21 10:03:04;;;;;;;8.95;4.05;;;18.60;99.90;;;;;;5095648;28;20097;-66
2022/04/21 10:05:33;;;;;;;7.40;4.00;;;18.80;99.90;;;;;;5104752;28;20133;-66
2022/04/21 10:08:02;;;;;;;6.68;4.40;;;18.80;99.90;;;;;;5103872;28;20039;-67
2022/04/21 10:10:30;;;;;;;5.78;3.88;;;18.70;99.90;;;;;;5113203;28;20551;-66
2022/04/21 10:13:00;;;;;;;6.10;4.10;;;18.70;99.90;;;;;;5112358;28;20490;-66
2022/04/21 10:15:28;;;;;;;7.38;3.60;;;18.70;99.90;;;;;;5101493;28;20423;-66
2022/04/21 10:17:56;;;;;;;5.47;3.63;;;18.90;99.90;;;;;;5112140;28;20051;-67
2022/04/21 10:20:25;;;;;;;5.20;3.47;;;19.20;99.90;;;;;;5112012;28;20058;-67
2022/04/21 10:22:54;;;;;;;4.97;3.30;;;19.40;99.90;;;;;;5112807;28;20058;-67
2022/04/21 10:25:43;;;;;;;7.25;3.78;;;19.90;99.90;;;;;;5110296;28;20047;-66
2022/04/21 10:28:41;;;;;;;5.40;3.53;;;19.30;99.90;;;;;;5112746;28;20059;-67
2022/04/21 10:31:28;;;;;;;6.00;3.50;;;19.50;99.90;;;;;;5101027;28;20503;-66
2022/04/21 10:34:06;;;;;;;4.72;3.05;;;20.00;99.90;;;;;;5109783;28;20051;-66
2022/04/21 10:36:46;;;;;;;5.13;2.78;;;20.00;99.90;;;;;;5100388;28;20040;-66
2022/04/21 10:39:17;;;;;;;5.47;2.80;;;20.00;99.90;;;;;;5106789;28;20521;-66
2022/04/21 10:41:45;;;;;;;5.68;2.80;;;20.00;99.80;;;;;;5111550;28;20486;-66
2022/04/21 10:44:25;;;;;;;5.30;2.60;;;20.20;99.10;;;;;;5113290;28;20046;-66
2022/04/21 10:47:30;;;;;;;4.18;2.72;;;19.90;98.90;;;;;;5112562;28;20181;-67
2022/04/21 10:50:19;;;;;;;7.53;2.95;;;20.40;98.60;;;;;;5113089;28;20391;-67
2022/04/21 10:58:34;;;;;;;3.95;2.60;;;20.50;97.20;;;;;;5101879;27;20055;-65
2022/04/21 11:01:10;;;;;;;4.65;2.83;;;21.00;96.80;;;;;;5091027;28;20519;-66
2022/04/21 11:03:39;;;;;;;4.28;2.63;;;21.20;96.20;;;;;;5089532;28;20074;-67
2022/04/21 11:06:08;;;;;;;5.90;2.90;;;21.50;95.60;;;;;;5078878;28;20485;-66
2022/04/21 11:08:36;;;;;;;4.50;2.75;;;21.70;95.20;;;;;;5089832;28;20127;-67
2022/04/21 11:11:04;;;;;;;6.75;2.83;;;21.60;94.50;;;;;;5090123;28;20067;-66
2022/04/21 11:13:51;;;;;;;4.55;2.78;;;21.70;94.10;;;;;;5090781;28;20040;-67
2022/04/21 11:16:40;;;;;;;4.68;2.33;;;21.90;93.50;;;;;;5104639;28;20498;-66
2022/04/21 11:19:28;;;;;;;5.57;2.45;;;22.10;93.70;;;;;;5101805;28;20359;-65
2022/04/21 11:21:57;;;;;;;7.05;2.30;;;22.50;92.70;;;;;;5090395;28;20043;-66
2022/04/21 11:24:26;;;;;;;4.57;2.38;;;22.80;92.40;;;;;;5091193;28;20052;-67
2022/04/21 11:26:59;;;;;;;4.10;2.15;;;22.90;92.00;;;;;;5090706;28;20475;-67
2022/04/21 11:29:26;;;;;;;4.38;2.15;;;23.20;91.10;;;;;;5098567;28;20059;-66
2022/04/21 11:31:56;;;;;;;5.78;2.55;;;23.40;90.20;;;;;;5105020;28;20051;-66
2022/04/21 11:34:25;;;;;;;5.38;2.50;;;23.50;90.00;;;;;;5101758;28;20051;-65
2022/04/21 11:36:54;;;;;;;6.07;2.20;;;23.60;88.10;;;;;;5090905;28;20476;-66
2022/04/21 11:39:21;;;;;;;4.05;2.35;;;23.60;87.30;;;;;;5090667;28;20067;-67
2022/04/21 11:41:49;;;;;;;3.38;1.73;;;24.20;84.90;;;;;;5104239;28;20054;-66
2022/04/21 11:44:23;;;;;;;3.38;1.10;;;24.30;81.20;;;;;;5104379;28;20127;-66
2022/04/21 11:46:50;;;;;;;4.57;1.38;;;24.70;78.70;;;;;;5088992;28;20119;-67
2022/04/21 11:49:17;;;;;;;3.10;1.23;;;24.90;78.80;;;;;;5090157;28;20054;-66
2022/04/21 11:51:51;;;;;;;2.75;1.15;;;24.80;76.50;;;;;;5097558;28;20142;-66
2022/04/21 11:54:18;;;;;;;1.75;0.77;;;24.20;75.20;;;;;;5088798;28;20124;-67
2022/04/21 11:56:50;;;;;;;1.20;0.80;;;23.50;74.20;;;;;;5097314;28;20047;-66
2022/04/21 11:59:18;;;;;;;1.30;0.60;;;23.00;75.50;;;;;;5109510;27;20168;-66
2022/04/21 12:07:20;;;;;;;1.42;0.73;;;22.10;73.80;;;;;;5088102;28;20036;-66
2022/04/21 12:09:48;;;;;;;2.45;1.13;;;21.40;75.10;;;;;;5106012;28;20093;-67
2022/04/21 12:12:20;;;;;;;3.92;1.48;;;21.40;76.70;;;;;;5102371;28;20623;-66
2022/04/21 12:14:48;;;;;;;5.72;1.80;;;21.00;81.30;;;;;;5096094;28;20082;-65
2022/04/21 12:17:16;;;;;;;5.65;1.90;;;20.40;83.40;;;;;;5101512;28;20032;-67
2022/04/21 12:19:45;;;;;;;3.58;1.75;;;20.10;84.70;;;;;;5108502;28;20044;-66
2022/04/21 12:22:18;;;;;;;3.33;1.50;;;19.80;85.20;;;;;;5105592;28;20087;-67
2022/04/21 12:24:46;;;;;;;;;;;19.40;86.20;;;;;;5111120;28;20062;-66
2022/04/21 12:27:34;;;;;;;5.93;1.80;;;19.10;87.20;;;;;;5109753;28;19934;-66
2022/04/21 12:30:11;;;;;;;3.78;1.58;;;19.00;87.30;;;;;;5106322;28;20057;-67
2022/04/21 12:32:46;;;;;;;3.90;1.43;;;18.90;88.00;;;;;;5106694;28;20047;-68
2022/04/21 12:35:14;;;;;;;4.60;1.80;;;18.90;88.70;;;;;;5109203;28;20285;-66
2022/04/21 12:37:44;;;;;;;4.43;2.10;;;19.00;87.50;;;;;;5110034;28;20470;-66
2022/04/21 12:40:14;;;;;;;5.63;2.22;;;19.00;87.20;;;;;;5104885;28;20089;-67
2022/04/21 12:42:48;;;;;;;7.82;2.42;;;19.20;87.20;;;;;;5106970;28;20047;-67
2022/04/21 12:45:17;;;;;;;3.83;1.90;;;19.20;87.80;;;;;;5108684;28;20055;-66
2022/04/21 12:47:48;;;;;;;4.55;1.90;;;19.40;86.90;;;;;;5103149;28;20054;-67
2022/04/21 12:50:21;;;;;;;4.25;1.70;;;19.30;87.40;;;;;;5100794;28;20572;-66
2022/04/21 12:52:53;;;;;;;4.43;1.92;;;19.50;87.30;;;;;;5105773;28;20044;-66
2022/04/21 12:55:29;;;;;;;3.63;1.42;;;19.60;87.50;;;;;;5110620;28;20180;-66
2022/04/21 12:58:03;;;;;;;4.32;1.80;;;19.80;87.00;;;;;;5109394;28;20130;-67
2022/04/21 13:00:30;;;;;;;3.17;1.55;;;19.70;86.70;;;;;;5097630;28;20051;-66
2022/04/21 13:02:59;;;;;;;5.03;1.77;;;19.40;87.00;;;;;;5091707;28;20473;-66
2022/04/21 13:05:27;;;;;;;3.42;1.90;;;19.00;87.60;;;;;;5098116;28;20509;-66
2022/04/21 13:07:54;;;;;;;4.72;2.03;;;18.50;89.20;;;;;;5091689;27;20458;-66
2022/04/21 13:10:21;;;;;;;4.72;2.10;;;18.30;90.10;;;;;;5098853;28;20052;-66
2022/04/21 13:12:50;;;;;;;4.78;2.33;;;18.20;90.30;;;;;;5088047;28;20040;-67
2022/04/21 13:15:17;;;;;;;4.07;2.15;;;18.10;90.40;;;;;;5093612;28;20082;-67
2022/04/21 13:17:44;;;;;;;3.67;2.00;;;18.10;90.60;;;;;;5090407;28;20063;-66
2022/04/21 13:21:52;;;;;;;5.60;2.03;;;18.20;90.60;;;;;;5090878;28;20494;-66
2022/04/21 13:23:05;;;;;;;4.47;2.20;;;18.40;90.90;;;;;;5097404;28;20036;-67
2022/04/21 13:25:41;;;;;;;4.70;1.92;;;18.70;90.70;;;;;;5100054;28;20050;-66
2022/04/21 13:28:10;;;;;;;3.88;2.30;;;18.80;90.50;;;;;;5104828;28;20127;-67
2022/04/21 13:30:38;;;;;;;4.95;2.35;;;18.70;90.60;;;;;;5092227;28;20063;-67
2022/04/21 13:33:23;;;;;;;4.88;2.08;;;18.70;90.60;;;;;;5090252;28;20411;-66
2022/04/21 13:35:52;;;;;;;4.00;2.15;;;18.60;90.60;;;;;;5090174;28;20117;-67
2022/04/21 13:38:20;;;;;;;4.55;2.30;;;18.30;91.00;;;;;;5085672;28;20036;-67
2022/04/21 13:40:47;;;;;;;3.95;2.35;;;18.10;91.40;;;;;;5088029;28;20131;-67
2022/04/21 13:43:15;;;;;;;5.38;2.30;;;17.60;91.70;;;;;;5083668;28;20134;-67
2022/04/21 13:46:02;;;;;;;5.60;2.40;;;17.40;92.00;;;;;;5086349;28;20036;-66
2022/04/21 13:48:31;;;;;;;5.47;2.22;;;17.00;92.40;;;;;;5088958;28;20040;-67
2022/04/21 13:50:59;;;;;;;4.57;2.20;;;16.90;92.80;;;;;;5096617;28;20059;-66
2022/04/21 13:53:26;;;;;;;4.90;2.17;;;16.80;93.10;;;;;;5098459;28;20138;-65
2022/04/21 13:55:54;;;;;;;6.28;1.90;;;16.60;93.40;;;;;;5089554;28;20055;-66